createdAt,value
2022-10-22T00:02:07.739Z,87.29
2022-10-22T00:04:51.413Z,85.29
2022-10-22T00:07:35.408Z,84.98
2022-10-22T00:10:19.098Z,85.05
2022-10-22T00:13:02.489Z,86.38
2022-10-22T00:15:45.919Z,87.90
2022-10-22T00:18:29.320Z,88.29
2022-10-22T00:21:12.939Z,88.03
2022-10-22T00:23:56.894Z,87.91
2022-10-22T00:26:40.431Z,88.52
2022-10-22T00:29:23.862Z,88.71
2022-10-22T00:32:07.295Z,87.38
2022-10-22T00:34:50.688Z,86.86
2022-10-22T00:37:34.103Z,88.81
2022-10-22T00:40:17.569Z,89.48
2022-10-22T00:43:00.964Z,89.35
2022-10-22T00:45:45.357Z,89.43
2022-10-22T00:48:33.704Z,91.11
2022-10-22T00:51:17.224Z,90.44
2022-10-22T00:54:08.815Z,90.73
2022-10-22T00:56:52.190Z,90.09
2022-10-22T00:59:37.426Z,91.48
2022-10-22T01:02:20.844Z,92.12
2022-10-22T01:05:04.885Z,92.86
2022-10-22T01:07:53.107Z,92.62
2022-10-22T01:11:04.047Z,92.94
2022-10-22T01:13:59.464Z,94.08
2022-10-22T01:17:08.380Z,94.25
2022-10-22T01:20:29.851Z,93.82
2022-10-22T01:23:25.070Z,93.92
2022-10-22T01:26:45.458Z,94.24
2022-10-22T01:29:51.645Z,92.29
2022-10-22T01:32:50.700Z,92.84
2022-10-22T01:35:45.024Z,92.95
2022-10-22T01:38:30.793Z,92.98
2022-10-22T01:41:14.374Z,91.68
2022-10-22T01:43:57.763Z,91.08
2022-10-22T01:46:41.275Z,92.18
2022-10-22T01:49:39.832Z,91.69
2022-10-22T01:53:04.405Z,91.47
2022-10-22T01:56:09.688Z,91.43
2022-10-22T01:59:12.127Z,89.70
2022-10-22T02:02:17.467Z,89.88
2022-10-22T02:05:22.510Z,91.18
2022-10-22T02:08:11.333Z,91.63
2022-10-22T02:10:56.117Z,93.70
2022-10-22T02:13:49.646Z,94.93
2022-10-22T02:16:44.330Z,90.24
2022-10-22T02:19:50.229Z,88.98
2022-10-22T02:22:34.375Z,87.75
2022-10-22T02:25:18.043Z,90.74
2022-10-22T02:28:16.820Z,90.92
2022-10-22T02:31:15.757Z,89.06
2022-10-22T02:34:08.853Z,89.25
2022-10-22T02:36:54.290Z,88.94
2022-10-22T02:39:39.784Z,88.17
2022-10-22T02:42:28.285Z,87.56
2022-10-22T02:45:11.725Z,89.10
2022-10-22T02:47:55.124Z,89.16
2022-10-22T02:50:38.470Z,90.87
2022-10-22T02:53:21.820Z,89.95
2022-10-22T02:56:05.839Z,89.41
2022-10-22T02:58:49.229Z,90.92
2022-10-22T03:01:32.664Z,90.28
2022-10-22T03:04:16.047Z,92.49
2022-10-22T03:06:59.652Z,94.81
2022-10-22T03:09:43.065Z,99.20
2022-10-22T03:12:26.511Z,95.78
2022-10-22T03:15:10.359Z,92.39
2022-10-22T03:17:53.698Z,89.44
2022-10-22T03:20:37.068Z,88.14
2022-10-22T03:23:20.553Z,87.50
2022-10-22T03:26:05.805Z,86.21
2022-10-22T03:28:49.401Z,87.61
2022-10-22T03:31:32.811Z,86.57
2022-10-22T03:34:16.174Z,84.31
2022-10-22T03:37:02.007Z,83.01
2022-10-22T03:39:45.546Z,84.41
2022-10-22T03:42:28.984Z,84.99
2022-10-22T03:45:12.614Z,85.01
2022-10-22T03:47:56.010Z,86.40
2022-10-22T03:50:39.387Z,85.53
2022-10-22T03:53:22.774Z,84.23
2022-10-22T03:56:10.453Z,82.57
2022-10-22T03:58:58.091Z,84.01
2022-10-22T04:01:41.430Z,90.88
2022-10-22T04:04:24.825Z,87.65
2022-10-22T04:07:08.848Z,85.72
2022-10-22T04:09:52.207Z,88.02
2022-10-22T04:12:35.549Z,85.01
2022-10-22T04:15:18.942Z,83.43
2022-10-22T04:18:02.357Z,85.68
2022-10-22T04:20:47.009Z,87.32
2022-10-22T04:23:30.631Z,89.18
2022-10-22T04:26:14.979Z,88.28
2022-10-22T04:28:58.337Z,89.29
2022-10-22T04:31:41.798Z,91.64
2022-10-22T04:34:28.772Z,90.18
2022-10-22T04:37:12.773Z,92.63
2022-10-22T04:39:58.130Z,91.21
2022-10-22T04:42:41.822Z,92.09
2022-10-22T04:45:25.182Z,95.09
2022-10-22T04:48:08.560Z,95.59
2022-10-22T04:50:52.020Z,92.98
2022-10-22T04:53:38.174Z,93.58
2022-10-22T04:56:28.751Z,95.17
2022-10-22T04:59:15.213Z,95.01
2022-10-22T05:01:58.576Z,94.99
2022-10-22T05:04:44.560Z,90.36
2022-10-22T05:07:27.942Z,87.23
2022-10-22T05:10:11.283Z,86.00
2022-10-22T05:12:54.606Z,85.54
2022-10-22T05:15:37.958Z,84.65
2022-10-22T05:18:22.649Z,85.42
2022-10-22T05:21:15.740Z,87.23
2022-10-22T05:24:00.193Z,87.34
2022-10-22T05:26:43.550Z,86.77
2022-10-22T05:29:27.861Z,93.30
2022-10-22T05:32:11.257Z,91.83
2022-10-22T05:34:54.597Z,88.84
2022-10-22T05:37:38.185Z,86.55
2022-10-22T05:40:30.603Z,89.01
2022-10-22T05:43:14.624Z,86.65
2022-10-22T05:46:08.383Z,85.47
2022-10-22T05:48:59.323Z,86.77
2022-10-22T05:51:42.777Z,85.46
2022-10-22T05:54:26.210Z,85.42
2022-10-22T05:57:09.561Z,88.49
2022-10-22T05:59:52.919Z,86.38
2022-10-22T06:02:36.394Z,87.33
2022-10-22T06:05:19.793Z,93.56
2022-10-22T06:08:04.410Z,90.85
2022-10-22T06:10:47.848Z,90.99
2022-10-22T06:13:32.831Z,93.18
2022-10-22T06:16:16.243Z,93.99
2022-10-22T06:19:02.180Z,95.86
2022-10-22T06:21:46.330Z,94.10
2022-10-22T06:24:30.041Z,92.55
2022-10-22T06:27:13.411Z,89.52
2022-10-22T06:29:56.820Z,87.47
2022-10-22T06:32:41.455Z,87.05
2022-10-22T06:35:25.034Z,89.48
2022-10-22T06:38:08.493Z,89.96
2022-10-22T06:40:51.864Z,91.49
2022-10-22T06:43:35.295Z,90.52
2022-10-22T06:46:21.623Z,90.81
2022-10-22T06:49:05.874Z,90.51
2022-10-22T06:51:53.692Z,90.69
2022-10-22T06:54:37.104Z,91.84
2022-10-22T06:57:20.432Z,91.94
2022-10-22T07:00:06.905Z,91.86
2022-10-22T07:02:56.471Z,92.92
2022-10-22T07:05:42.644Z,96.94
2022-10-22T07:08:25.992Z,93.23
2022-10-22T07:11:17.157Z,90.88
2022-10-22T07:14:01.031Z,89.56
2022-10-22T07:16:45.802Z,89.69
2022-10-22T07:19:29.286Z,90.28
2022-10-22T07:22:12.688Z,90.28
2022-10-22T07:24:56.089Z,90.96
2022-10-22T07:27:39.625Z,90.22
2022-10-22T07:30:23.221Z,91.10
2022-10-22T07:33:07.550Z,89.07
2022-10-22T07:35:50.973Z,89.61
2022-10-22T07:38:35.621Z,88.83
2022-10-22T07:41:18.995Z,89.16
2022-10-22T07:44:02.590Z,91.82
2022-10-22T07:46:48.817Z,91.07
2022-10-22T07:49:32.547Z,91.60
2022-10-22T07:52:15.970Z,91.62
2022-10-22T07:54:59.413Z,91.57
2022-10-22T07:57:42.891Z,92.45
2022-10-22T08:00:26.371Z,92.46
2022-10-22T08:03:14.577Z,93.77
2022-10-22T08:05:58.139Z,95.28
2022-10-22T08:08:43.549Z,95.51
2022-10-22T08:11:27.057Z,98.92
2022-10-22T08:14:10.422Z,96.83
2022-10-22T08:16:53.811Z,95.01
2022-10-22T08:19:37.703Z,96.77
2022-10-22T08:22:21.183Z,94.45
2022-10-22T08:25:06.083Z,93.02
2022-10-22T08:27:49.469Z,93.72
2022-10-22T08:30:34.054Z,92.83
2022-10-22T08:33:17.523Z,95.72
2022-10-22T08:36:00.971Z,94.26
2022-10-22T08:38:44.410Z,93.60
2022-10-22T08:41:27.897Z,92.40
2022-10-22T08:44:24.955Z,92.10
2022-10-22T08:47:45.516Z,94.35
2022-10-22T08:50:51.153Z,93.49
2022-10-22T08:54:07.167Z,94.43
2022-10-22T08:57:41.642Z,93.99
2022-10-22T09:00:40.514Z,94.48
2022-10-22T09:03:44.969Z,92.52
2022-10-22T09:06:32.156Z,96.29
2022-10-22T09:09:18.576Z,95.95
2022-10-22T09:12:07.319Z,97.28
2022-10-22T09:14:51.407Z,96.66
2022-10-22T09:17:54.787Z,96.34
2022-10-22T09:20:58.262Z,95.98
2022-10-22T09:24:11.653Z,98.47
2022-10-22T09:26:57.823Z,95.54
2022-10-22T09:29:42.162Z,96.08
2022-10-22T09:32:25.904Z,95.21
2022-10-22T09:35:13.421Z,94.33
2022-10-22T09:37:57.265Z,95.67
2022-10-22T09:40:54.521Z,95.83
2022-10-22T09:43:38.005Z,93.44
2022-10-22T09:46:27.045Z,95.63
2022-10-22T09:49:19.406Z,96.82
2022-10-22T09:52:03.524Z,95.43
2022-10-22T09:54:52.566Z,95.16
2022-10-22T09:57:38.765Z,97.75
2022-10-22T10:00:26.039Z,95.78
2022-10-22T10:03:23.617Z,94.97
2022-10-22T10:06:08.031Z,93.92
2022-10-22T10:08:51.680Z,93.84
2022-10-22T10:11:54.055Z,95.55
2022-10-22T10:15:13.535Z,93.52
2022-10-22T10:18:26.266Z,92.50
2022-10-22T10:21:44.806Z,92.53
2022-10-22T10:24:43.375Z,89.81
2022-10-22T10:28:13.614Z,91.02
2022-10-22T10:31:37.513Z,93.31
2022-10-22T10:34:59.805Z,93.17
2022-10-22T10:38:04.107Z,91.87
2022-10-22T10:41:16.080Z,92.46
2022-10-22T10:44:37.198Z,93.73
2022-10-22T10:47:56.861Z,91.71
2022-10-22T10:51:01.405Z,90.32
2022-10-22T10:54:28.824Z,89.37
2022-10-22T10:57:44.499Z,90.63
2022-10-22T11:00:39.592Z,88.81
2022-10-22T11:04:01.136Z,90.98
2022-10-22T11:06:46.764Z,90.60
2022-10-22T11:09:48.250Z,90.55
2022-10-22T11:12:41.709Z,90.53
2022-10-22T11:15:37.004Z,92.10
2022-10-22T11:18:42.088Z,91.49
2022-10-22T11:21:57.793Z,91.49
2022-10-22T11:25:00.221Z,93.25
2022-10-22T11:28:11.658Z,90.22
2022-10-22T11:31:09.958Z,92.02
2022-10-22T11:34:34.791Z,90.49
2022-10-22T11:37:19.660Z,90.08
2022-10-22T11:40:14.818Z,88.49
2022-10-22T11:43:05.640Z,87.23
2022-10-22T11:45:56.995Z,91.39
2022-10-22T11:48:40.441Z,86.58
2022-10-22T11:51:39.177Z,86.42
2022-10-22T11:54:42.876Z,85.91
2022-10-22T11:57:39.469Z,84.21
2022-10-22T12:00:46.258Z,84.32
2022-10-22T12:03:32.612Z,84.35
2022-10-22T12:06:16.047Z,84.09
2022-10-22T12:09:06.014Z,84.85
2022-10-22T12:11:51.697Z,84.52
2022-10-22T12:14:58.411Z,83.27
2022-10-22T12:17:43.051Z,83.25
2022-10-22T12:20:28.185Z,83.66
2022-10-22T12:23:13.798Z,82.95
2022-10-22T12:25:57.285Z,83.13
2022-10-22T12:28:41.065Z,81.30
2022-10-22T12:31:24.996Z,81.72
2022-10-22T12:34:23.875Z,82.01
2022-10-22T12:37:07.638Z,81.52
2022-10-22T12:39:51.444Z,79.90
2022-10-22T12:42:35.355Z,78.71
2022-10-22T12:45:19.344Z,78.65
2022-10-22T12:48:16.118Z,78.61
2022-10-22T12:51:02.242Z,78.86
2022-10-22T12:53:54.786Z,79.73
2022-10-22T12:56:38.615Z,78.53
2022-10-22T12:59:37.048Z,76.20
2022-10-22T13:02:24.535Z,75.65
2022-10-22T13:05:39.248Z,77.48
2022-10-22T13:08:29.210Z,77.12
2022-10-22T13:11:12.766Z,75.53
2022-10-22T13:14:04.087Z,74.93
2022-10-22T13:17:15.103Z,75.08
2022-10-22T13:19:58.465Z,75.32
2022-10-22T13:23:00.200Z,73.94
2022-10-22T13:25:44.145Z,72.92
2022-10-22T13:28:30.631Z,74.03
2022-10-22T13:31:20.127Z,73.25
2022-10-22T13:34:11.791Z,73.08
2022-10-22T13:36:57.479Z,72.20
2022-10-22T13:39:40.929Z,72.53
2022-10-22T13:42:24.976Z,72.76
2022-10-22T13:45:09.167Z,71.37
2022-10-22T13:47:54.929Z,70.82
2022-10-22T13:50:39.132Z,70.64
2022-10-22T13:53:26.517Z,70.09
2022-10-22T13:56:20.140Z,71.57
2022-10-22T13:59:03.733Z,70.63
2022-10-22T14:01:47.216Z,69.72
2022-10-22T14:04:30.802Z,70.85
2022-10-22T14:07:17.866Z,69.99
2022-10-22T14:10:01.456Z,69.75
2022-10-22T14:12:50.790Z,69.76
2022-10-22T14:15:38.490Z,69.87
2022-10-22T14:18:28.695Z,70.06
2022-10-22T14:21:15.913Z,69.56
2022-10-22T14:23:59.380Z,70.72
2022-10-22T14:26:42.829Z,69.96
2022-10-22T14:29:26.761Z,70.50
2022-10-22T14:32:21.909Z,70.18
2022-10-22T14:35:05.694Z,70.40
2022-10-22T14:37:49.153Z,69.29
2022-10-22T14:40:32.548Z,70.56
2022-10-22T14:43:23.806Z,70.76
2022-10-22T14:46:07.201Z,70.23
2022-10-22T14:48:50.620Z,71.53
2022-10-22T14:51:34.036Z,70.97
2022-10-22T14:54:18.470Z,71.25
2022-10-22T14:57:05.722Z,70.83
2022-10-22T14:59:49.167Z,71.14
2022-10-22T15:02:32.656Z,71.63
2022-10-22T15:05:17.424Z,70.82
2022-10-22T15:08:00.825Z,71.89
2022-10-22T15:10:44.223Z,72.08
2022-10-22T15:13:29.525Z,71.34
2022-10-22T15:16:16.454Z,71.82
2022-10-22T15:19:00.943Z,71.31
2022-10-22T15:21:44.355Z,71.26
2022-10-22T15:24:27.702Z,71.20
2022-10-22T15:27:14.636Z,70.97
2022-10-22T15:30:00.805Z,70.67
2022-10-22T15:32:44.317Z,71.13
2022-10-22T15:35:28.687Z,71.02
2022-10-22T15:38:12.068Z,71.59
2022-10-22T15:41:07.462Z,70.63
2022-10-22T15:43:50.845Z,70.86
2022-10-22T15:46:35.531Z,70.52
2022-10-22T15:49:19.157Z,70.53
2022-10-22T15:52:03.638Z,70.83
2022-10-22T15:54:47.501Z,70.92
2022-10-22T15:57:30.879Z,73.00
2022-10-22T16:00:14.801Z,73.83
2022-10-22T16:02:58.647Z,74.57
2022-10-22T16:05:49.365Z,75.09
2022-10-22T16:08:33.246Z,74.99
2022-10-22T16:11:16.633Z,75.34
2022-10-22T16:14:01.315Z,74.79
2022-10-22T16:16:49.748Z,73.55
2022-10-22T16:19:33.395Z,72.55
2022-10-22T16:22:16.825Z,73.42
2022-10-22T16:25:00.271Z,73.16
2022-10-22T16:27:43.671Z,73.10
2022-10-22T16:30:27.111Z,72.18
2022-10-22T16:33:11.693Z,72.81
2022-10-22T16:35:55.209Z,72.11
2022-10-22T16:38:38.695Z,74.56
2022-10-22T16:41:25.698Z,76.90
2022-10-22T16:44:10.384Z,76.38
2022-10-22T16:46:53.772Z,74.41
2022-10-22T16:49:37.344Z,75.28
2022-10-22T16:52:20.767Z,76.24
2022-10-22T16:55:04.924Z,77.03
2022-10-22T16:57:53.437Z,78.67
2022-10-22T17:00:37.088Z,76.92
2022-10-22T17:03:22.563Z,76.44
2022-10-22T17:06:09.319Z,76.00
2022-10-22T17:08:53.191Z,77.76
2022-10-22T17:11:39.189Z,77.40
2022-10-22T17:14:24.706Z,75.26
2022-10-22T17:17:08.103Z,76.73
2022-10-22T17:19:51.492Z,77.32
2022-10-22T17:22:35.035Z,78.42
2022-10-22T17:25:36.229Z,79.87
2022-10-22T17:28:19.588Z,79.52
2022-10-22T17:31:28.193Z,77.09
2022-10-22T17:34:16.996Z,78.88
2022-10-22T17:37:00.430Z,79.14
2022-10-22T17:39:43.927Z,77.53
2022-10-22T17:42:28.348Z,78.15
2022-10-22T17:45:11.784Z,78.72
2022-10-22T17:47:57.270Z,78.32
2022-10-22T17:50:43.996Z,77.32
2022-10-22T17:53:29.161Z,76.98
2022-10-22T17:56:18.562Z,79.04
2022-10-22T17:59:02.769Z,77.66
2022-10-22T18:01:47.726Z,78.19
2022-10-22T18:04:34.052Z,77.94
2022-10-22T18:07:17.461Z,77.99
2022-10-22T18:10:00.850Z,77.57
2022-10-22T18:12:44.339Z,77.67
2022-10-22T18:15:27.731Z,77.57
2022-10-22T18:18:13.520Z,77.75
2022-10-22T18:20:57.476Z,78.28
2022-10-22T18:23:40.853Z,76.43
2022-10-22T18:26:26.852Z,80.68
2022-10-22T18:29:16.964Z,81.55
2022-10-22T18:32:00.538Z,84.41
2022-10-22T18:34:43.961Z,83.91
2022-10-22T18:37:27.423Z,84.15
2022-10-22T18:40:14.445Z,84.32
2022-10-22T18:42:58.078Z,84.40
2022-10-22T18:45:46.973Z,84.41
2022-10-22T18:48:30.407Z,85.23
2022-10-22T18:51:15.585Z,84.03
2022-10-22T18:54:05.884Z,82.73
2022-10-22T18:57:03.234Z,83.02
2022-10-22T18:59:46.791Z,83.08
2022-10-22T19:02:30.257Z,82.89
2022-10-22T19:05:13.647Z,81.60
2022-10-22T19:07:57.141Z,80.40
2022-10-22T19:10:40.610Z,79.49
2022-10-22T19:13:25.719Z,78.14
2022-10-22T19:16:18.378Z,79.84
2022-10-22T19:19:05.906Z,80.76
2022-10-22T19:21:49.869Z,80.51
2022-10-22T19:24:33.491Z,79.10
2022-10-22T19:27:18.272Z,79.22
2022-10-22T19:30:02.256Z,81.19
2022-10-22T19:32:46.369Z,80.60
2022-10-22T19:35:29.902Z,79.96
2022-10-22T19:38:13.353Z,79.06
2022-10-22T19:40:56.911Z,80.64
2022-10-22T19:43:41.714Z,81.51
2022-10-22T19:46:28.408Z,78.99
2022-10-22T19:49:11.798Z,78.90
2022-10-22T19:51:55.184Z,78.47
2022-10-22T19:54:40.916Z,77.98
2022-10-22T19:57:24.326Z,78.73
2022-10-22T20:00:08.708Z,79.65
2022-10-22T20:02:53.230Z,81.33
2022-10-22T20:05:38.894Z,82.37
2022-10-22T20:08:22.313Z,81.09
2022-10-22T20:11:08.995Z,83.34
2022-10-22T20:13:52.883Z,83.48
2022-10-22T20:16:36.352Z,84.26
2022-10-22T20:19:19.780Z,87.18
2022-10-22T20:22:03.297Z,85.90
2022-10-22T20:24:46.779Z,86.89
2022-10-22T20:27:30.181Z,85.82
2022-10-22T20:32:58.242Z,86.35
2022-10-22T20:35:42.578Z,87.32
2022-10-22T20:38:26.419Z,87.65
2022-10-22T20:41:21.477Z,89.79
2022-10-22T20:44:04.933Z,87.53
2022-10-22T20:46:48.387Z,90.59
2022-10-22T20:49:33.093Z,91.28
2022-10-22T20:52:16.509Z,90.45
2022-10-22T20:55:00.020Z,91.13
2022-10-22T20:57:43.759Z,89.38
2022-10-22T21:00:27.425Z,87.85
2022-10-22T21:03:11.278Z,87.15
2022-10-22T21:05:54.743Z,87.36
2022-10-22T21:08:38.142Z,87.49
2022-10-22T21:11:23.227Z,88.60
2022-10-22T21:14:11.180Z,88.71
2022-10-22T21:16:54.583Z,88.24
2022-10-22T21:19:38.041Z,87.36
2022-10-22T21:22:21.487Z,86.19
2022-10-22T21:25:05.210Z,87.29
2022-10-22T21:27:48.592Z,87.36
2022-10-22T21:30:32.574Z,85.45
2022-10-22T21:33:16.102Z,85.08
2022-10-22T21:35:59.537Z,86.01
2022-10-22T21:38:43.218Z,84.39
2022-10-22T21:41:26.635Z,85.39
2022-10-22T21:44:10.056Z,85.18
2022-10-22T21:46:53.483Z,86.84
2022-10-22T21:49:36.901Z,87.41
2022-10-22T21:52:20.347Z,89.02
2022-10-22T21:55:03.988Z,89.03
2022-10-22T21:57:47.414Z,89.42
2022-10-22T22:00:30.792Z,90.45
2022-10-22T22:03:14.200Z,90.59
2022-10-22T22:06:04.425Z,91.04
2022-10-22T22:08:48.713Z,90.61
2022-10-22T22:11:32.601Z,91.01
2022-10-22T22:14:16.029Z,89.42
2022-10-22T22:16:59.493Z,88.45
2022-10-22T22:19:43.015Z,88.01
2022-10-22T22:22:26.489Z,87.66
2022-10-22T22:25:10.070Z,86.43
2022-10-22T22:27:53.442Z,87.00
2022-10-22T22:30:36.803Z,84.91
2022-10-22T22:33:20.200Z,83.63
2022-10-22T22:36:03.628Z,82.66
2022-10-22T22:38:47.019Z,82.44
2022-10-22T22:41:30.726Z,81.64
2022-10-22T22:44:14.820Z,80.82
2022-10-22T22:46:58.185Z,80.55
2022-10-22T22:49:41.622Z,80.38
2022-10-22T22:52:25.010Z,80.17
2022-10-22T22:55:09.032Z,79.02
2022-10-22T22:57:52.436Z,80.33
2022-10-22T23:00:35.834Z,79.49
2022-10-22T23:03:19.292Z,80.90
2022-10-22T23:06:02.803Z,78.50
2022-10-22T23:08:52.070Z,80.86
2022-10-22T23:11:35.948Z,80.60
2022-10-22T23:14:20.612Z,80.90
2022-10-22T23:17:03.977Z,79.96
2022-10-22T23:19:47.337Z,82.40
2022-10-22T23:22:30.718Z,80.83
2022-10-22T23:25:14.174Z,80.11
2022-10-22T23:27:57.595Z,79.75
2022-10-22T23:30:44.474Z,78.89
2022-10-22T23:33:27.939Z,79.19
2022-10-22T23:36:12.321Z,80.12
2022-10-22T23:38:55.850Z,79.94
2022-10-22T23:41:39.414Z,79.42
2022-10-22T23:44:23.383Z,80.40
2022-10-22T23:47:06.749Z,79.26
2022-10-22T23:49:50.118Z,78.86
2022-10-22T23:52:33.450Z,81.19
2022-10-22T23:55:16.922Z,80.09
2022-10-22T23:58:00.295Z,79.51
